createdAt,value
2018-12-31T00:02:13.233Z,4.77
2018-12-31T00:04:49.415Z,5.30
2018-12-31T00:07:23.050Z,5.80
2018-12-31T00:09:54.230Z,4.70
2018-12-31T00:12:25.823Z,4.60
2018-12-31T00:14:57.001Z,5.27
2018-12-31T00:17:30.022Z,4.90
2018-12-31T00:20:04.265Z,5.10
2018-12-31T00:22:35.592Z,6.30
2018-12-31T00:25:10.217Z,5.03
2018-12-31T00:27:42.810Z,4.97
2018-12-31T00:30:14.809Z,4.70
2018-12-31T00:32:48.859Z,4.63
2018-12-31T00:35:24.193Z,4.77
2018-12-31T00:37:55.258Z,4.57
2018-12-31T00:40:28.162Z,4.80
2018-12-31T00:42:59.545Z,4.93
2018-12-31T00:45:40.915Z,4.63
2018-12-31T00:48:14.893Z,4.87
2018-12-31T00:50:45.805Z,5.00
2018-12-31T00:53:19.338Z,5.50
2018-12-31T00:55:50.622Z,5.20
2018-12-31T00:58:21.664Z,5.07
2018-12-31T01:00:53.601Z,5.23
2018-12-31T01:03:24.697Z,5.40
2018-12-31T01:05:55.911Z,5.10
2018-12-31T01:08:29.761Z,4.67
2018-12-31T01:11:03.844Z,4.30
2018-12-31T01:13:35.241Z,4.43
2018-12-31T01:16:06.938Z,5.63
2018-12-31T01:18:38.121Z,3.97
2018-12-31T01:21:09.482Z,4.33
2018-12-31T01:23:40.534Z,4.33
2018-12-31T01:26:11.988Z,4.20
2018-12-31T01:28:43.053Z,4.30
2018-12-31T01:31:14.996Z,4.07
2018-12-31T01:33:46.685Z,4.57
2018-12-31T01:36:19.108Z,4.23
2018-12-31T01:38:50.251Z,4.20
2018-12-31T01:41:21.912Z,5.30
2018-12-31T01:43:52.942Z,5.13
2018-12-31T01:46:26.857Z,4.73
2018-12-31T01:49:01.185Z,5.43
2018-12-31T01:51:32.341Z,4.53
2018-12-31T01:54:05.917Z,5.60
2018-12-31T01:56:40.359Z,5.27
2018-12-31T01:59:16.340Z,4.77
2018-12-31T02:01:47.177Z,4.60
2018-12-31T02:04:18.589Z,5.13
2018-12-31T02:06:53.896Z,4.80
2018-12-31T02:09:25.215Z,4.80
2018-12-31T02:11:56.466Z,5.80
2018-12-31T02:14:27.812Z,5.23
2018-12-31T02:16:59.113Z,5.40
2018-12-31T02:19:30.302Z,5.40
2018-12-31T02:22:01.374Z,5.70
2018-12-31T02:24:32.526Z,5.17
2018-12-31T02:27:03.968Z,5.27
2018-12-31T02:29:35.197Z,4.90
2018-12-31T02:32:06.253Z,4.43
2018-12-31T02:34:38.057Z,5.40
2018-12-31T02:37:09.141Z,4.83
2018-12-31T02:39:40.632Z,5.50
2018-12-31T02:42:15.832Z,5.60
2018-12-31T02:44:54.904Z,4.80
2018-12-31T02:47:26.165Z,5.33
2018-12-31T02:49:57.774Z,5.97
2018-12-31T02:52:29.459Z,5.00
2018-12-31T02:55:01.133Z,5.17
2018-12-31T02:57:37.088Z,5.77
2018-12-31T03:00:08.558Z,5.80
2018-12-31T03:02:39.617Z,5.80
2018-12-31T03:05:13.636Z,5.33
2018-12-31T03:07:44.870Z,5.53
2018-12-31T03:10:16.284Z,6.00
2018-12-31T03:12:47.882Z,6.00
2018-12-31T03:15:19.288Z,5.00
2018-12-31T03:17:50.430Z,5.93
2018-12-31T03:20:21.833Z,6.03
2018-12-31T03:22:53.037Z,5.80
2018-12-31T03:25:24.576Z,5.23
2018-12-31T03:27:59.934Z,5.63
2018-12-31T03:30:30.905Z,5.83
2018-12-31T03:33:04.635Z,6.10
2018-12-31T03:35:36.445Z,7.00
2018-12-31T03:38:07.647Z,6.00
2018-12-31T03:40:39.106Z,5.77
2018-12-31T03:43:11.049Z,6.53
2018-12-31T03:45:42.894Z,5.73
2018-12-31T03:48:14.257Z,4.93
2018-12-31T03:50:47.622Z,5.53
2018-12-31T03:53:18.734Z,5.23
2018-12-31T03:55:50.126Z,5.13
2018-12-31T03:58:21.403Z,5.57
2018-12-31T04:00:53.674Z,5.60
2018-12-31T04:03:24.739Z,5.87
2018-12-31T04:05:59.440Z,6.03
2018-12-31T04:08:32.115Z,5.83
2018-12-31T04:11:06.404Z,5.47
2018-12-31T04:13:45.470Z,5.30
2018-12-31T04:16:16.907Z,4.80
2018-12-31T04:18:48.278Z,5.53
2018-12-31T04:21:19.616Z,5.60
2018-12-31T04:23:50.751Z,4.87
2018-12-31T04:26:21.833Z,5.87
2018-12-31T04:28:52.768Z,5.77
2018-12-31T04:31:24.250Z,5.97
2018-12-31T04:33:55.352Z,5.83
2018-12-31T04:36:29.142Z,6.00
2018-12-31T04:39:00.389Z,6.00
2018-12-31T04:41:33.485Z,7.07
2018-12-31T04:44:04.787Z,6.50
2018-12-31T04:46:36.096Z,6.10
2018-12-31T04:49:07.948Z,5.87
2018-12-31T04:51:39.309Z,6.67
2018-12-31T04:54:10.330Z,6.97
2018-12-31T04:56:41.629Z,7.00
2018-12-31T04:59:12.826Z,6.40
2018-12-31T05:01:44.002Z,7.17
2018-12-31T05:04:15.537Z,7.03
2018-12-31T05:06:46.828Z,7.83
2018-12-31T05:09:19.707Z,6.47
2018-12-31T05:11:55.101Z,7.60
2018-12-31T05:14:26.482Z,7.23
2018-12-31T05:16:58.004Z,7.63
2018-12-31T05:19:30.273Z,7.53
2018-12-31T05:22:01.530Z,7.97
2018-12-31T05:24:34.239Z,7.23
2018-12-31T05:27:08.602Z,7.57
2018-12-31T05:29:39.784Z,7.17
2018-12-31T05:32:10.950Z,7.57
2018-12-31T05:34:43.844Z,7.90
2018-12-31T05:37:15.199Z,7.70
2018-12-31T05:39:46.546Z,7.23
2018-12-31T05:42:18.030Z,7.43
2018-12-31T05:44:49.683Z,7.40
2018-12-31T05:47:21.028Z,7.87
2018-12-31T05:49:52.256Z,7.53
2018-12-31T05:52:24.033Z,8.27
2018-12-31T05:54:55.400Z,8.80
2018-12-31T05:57:26.605Z,8.17
2018-12-31T05:59:58.282Z,8.73
2018-12-31T06:02:29.309Z,7.47
2018-12-31T06:05:04.375Z,8.83
2018-12-31T06:07:35.553Z,7.97
2018-12-31T06:10:08.171Z,7.90
2018-12-31T06:12:43.584Z,7.93
2018-12-31T06:15:15.004Z,8.57
2018-12-31T06:17:48.165Z,8.37
2018-12-31T06:20:19.393Z,8.93
2018-12-31T06:22:50.454Z,8.60
2018-12-31T06:25:21.595Z,8.27
2018-12-31T06:27:52.640Z,8.03
2018-12-31T06:30:24.118Z,8.70
2018-12-31T06:32:55.540Z,7.70
2018-12-31T06:35:26.582Z,8.83
2018-12-31T06:37:58.049Z,8.87
2018-12-31T06:40:29.463Z,8.07
2018-12-31T06:43:00.654Z,7.93
2018-12-31T06:45:32.184Z,7.90
2018-12-31T06:48:03.141Z,7.67
2018-12-31T06:50:34.808Z,7.73
2018-12-31T06:53:05.943Z,8.70
2018-12-31T06:55:37.288Z,8.40
2018-12-31T06:58:08.642Z,8.10
2018-12-31T07:00:40.908Z,7.57
2018-12-31T07:03:12.526Z,7.67
2018-12-31T07:05:43.891Z,7.37
2018-12-31T07:08:14.962Z,8.60
2018-12-31T07:10:48.419Z,7.20
2018-12-31T07:13:19.551Z,7.43
2018-12-31T07:15:51.895Z,9.40
2018-12-31T07:18:23.308Z,8.73
2018-12-31T07:20:54.655Z,10.57
2018-12-31T07:23:25.983Z,9.40
2018-12-31T07:25:57.669Z,9.40
2018-12-31T07:28:32.256Z,10.03
2018-12-31T07:31:03.662Z,9.40
2018-12-31T07:33:38.302Z,9.93
2018-12-31T07:36:10.251Z,9.97
2018-12-31T07:38:41.671Z,10.50
2018-12-31T07:41:13.724Z,9.77
2018-12-31T07:43:45.237Z,9.47
2018-12-31T07:46:16.447Z,11.97
2018-12-31T07:48:48.223Z,11.03
2018-12-31T07:51:19.459Z,11.17
2018-12-31T07:53:50.492Z,10.97
2018-12-31T07:56:21.715Z,10.87
2018-12-31T07:58:57.221Z,10.00
2018-12-31T08:01:30.010Z,9.63
2018-12-31T08:04:01.243Z,9.77
2018-12-31T08:06:33.198Z,10.47
2018-12-31T08:09:07.577Z,9.73
2018-12-31T08:11:39.093Z,9.90
2018-12-31T08:14:10.572Z,9.67
2018-12-31T08:16:42.802Z,9.30
2018-12-31T08:19:14.338Z,9.60
2018-12-31T08:21:49.167Z,10.13
2018-12-31T08:24:20.835Z,10.83
2018-12-31T08:26:52.086Z,10.27
2018-12-31T08:29:24.115Z,10.93
2018-12-31T08:31:55.154Z,11.30
2018-12-31T08:34:26.443Z,11.10
2018-12-31T08:36:57.860Z,9.77
2018-12-31T08:39:32.089Z,11.03
2018-12-31T08:42:04.106Z,12.43
2018-12-31T08:44:35.565Z,11.10
2018-12-31T08:47:08.418Z,12.23
2018-12-31T08:49:40.135Z,14.33
2018-12-31T08:52:11.415Z,14.63
2018-12-31T08:54:44.181Z,15.30
2018-12-31T08:57:16.959Z,14.03
2018-12-31T08:59:57.281Z,14.53
2018-12-31T09:02:32.777Z,11.87
2018-12-31T09:05:07.153Z,11.33
2018-12-31T09:07:39.660Z,14.27
2018-12-31T09:10:14.786Z,13.30
2018-12-31T09:12:46.170Z,13.67
2018-12-31T09:15:17.442Z,13.07
2018-12-31T09:17:48.670Z,13.37
2018-12-31T09:20:20.760Z,14.70
2018-12-31T09:22:52.899Z,14.83
2018-12-31T09:25:24.079Z,13.03
2018-12-31T09:27:55.737Z,12.23
2018-12-31T09:30:31.403Z,12.63
2018-12-31T09:33:02.544Z,11.70
2018-12-31T09:35:34.286Z,12.23
2018-12-31T09:38:05.681Z,13.23
2018-12-31T09:40:40.026Z,12.27
2018-12-31T09:43:13.481Z,12.17
2018-12-31T09:45:45.098Z,11.43
2018-12-31T09:48:16.714Z,11.37
2018-12-31T09:50:48.725Z,12.07
2018-12-31T09:53:19.988Z,11.63
2018-12-31T09:55:51.588Z,12.33
2018-12-31T09:58:22.736Z,13.80
2018-12-31T10:01:05.083Z,13.67
2018-12-31T10:03:38.007Z,12.93
2018-12-31T10:06:09.729Z,12.97
2018-12-31T10:08:40.555Z,13.37
2018-12-31T10:11:11.688Z,12.03
2018-12-31T10:13:46.292Z,13.80
2018-12-31T10:16:17.490Z,11.17
2018-12-31T10:18:49.246Z,11.00
2018-12-31T10:21:20.361Z,11.37
2018-12-31T10:23:51.489Z,12.30
2018-12-31T10:26:22.691Z,11.53
2018-12-31T10:28:57.129Z,12.40
2018-12-31T10:31:30.237Z,11.03
2018-12-31T10:34:04.045Z,10.50
2018-12-31T10:36:36.380Z,9.60
2018-12-31T10:39:14.194Z,10.27
2018-12-31T10:41:45.971Z,10.10
2018-12-31T10:44:17.498Z,10.90
2018-12-31T10:46:48.948Z,9.77
2018-12-31T10:49:20.404Z,10.20
2018-12-31T10:51:51.878Z,10.13
2018-12-31T10:54:23.124Z,9.80
2018-12-31T10:56:54.077Z,11.53
2018-12-31T10:59:24.786Z,9.80
2018-12-31T11:01:57.742Z,10.53
2018-12-31T11:04:28.746Z,9.50
2018-12-31T11:07:02.563Z,11.00
2018-12-31T11:09:35.516Z,11.10
2018-12-31T11:12:13.984Z,10.67
2018-12-31T11:14:48.253Z,10.63
2018-12-31T11:17:20.543Z,8.63
2018-12-31T11:19:55.292Z,9.67
2018-12-31T11:22:26.355Z,10.80
2018-12-31T11:24:58.235Z,9.27
2018-12-31T11:27:30.544Z,9.67
2018-12-31T11:30:01.930Z,9.53
2018-12-31T11:32:35.015Z,9.47
2018-12-31T11:35:09.081Z,9.10
2018-12-31T11:37:40.576Z,9.10
2018-12-31T11:40:12.239Z,9.50
2018-12-31T11:42:46.513Z,9.80
2018-12-31T11:45:17.621Z,10.37
2018-12-31T11:47:49.030Z,9.13
2018-12-31T11:50:21.037Z,9.37
2018-12-31T11:52:54.599Z,9.97
2018-12-31T11:55:26.044Z,9.17
2018-12-31T11:57:56.883Z,9.80
2018-12-31T12:00:27.963Z,9.93
2018-12-31T12:02:59.503Z,10.30
2018-12-31T12:05:38.796Z,10.23
2018-12-31T12:08:14.206Z,9.77
2018-12-31T12:10:49.319Z,10.20
2018-12-31T12:13:22.709Z,10.20
2018-12-31T12:15:54.627Z,10.27
2018-12-31T12:18:27.008Z,9.90
2018-12-31T12:20:59.152Z,10.30
2018-12-31T12:23:30.853Z,9.30
2018-12-31T12:26:11.614Z,9.27
2018-12-31T12:28:47.267Z,8.83
2018-12-31T12:31:24.089Z,8.50
2018-12-31T12:33:56.510Z,8.57
2018-12-31T12:36:30.184Z,8.67
2018-12-31T12:39:02.524Z,7.70
2018-12-31T12:41:36.237Z,8.83
2018-12-31T12:44:10.196Z,8.43
2018-12-31T12:46:42.140Z,7.40
2018-12-31T12:49:13.465Z,8.43
2018-12-31T12:51:44.688Z,8.00
2018-12-31T12:54:17.608Z,7.13
2018-12-31T12:56:49.183Z,7.97
2018-12-31T12:59:23.856Z,8.77
2018-12-31T13:01:55.700Z,8.20
2018-12-31T13:04:30.152Z,8.30
2018-12-31T13:07:01.901Z,7.33
2018-12-31T13:09:33.960Z,7.13
2018-12-31T13:12:05.325Z,6.60
2018-12-31T13:14:38.156Z,6.57
2018-12-31T13:17:09.321Z,6.50
2018-12-31T13:19:44.089Z,6.70
2018-12-31T13:22:16.271Z,6.93
2018-12-31T13:24:53.049Z,6.40
2018-12-31T13:27:26.083Z,6.20
2018-12-31T13:29:59.095Z,6.10
2018-12-31T13:32:31.016Z,5.97
2018-12-31T13:35:02.746Z,6.63
2018-12-31T13:37:34.104Z,6.80
2018-12-31T13:40:08.062Z,6.80
2018-12-31T13:42:39.638Z,7.50
2018-12-31T13:45:20.858Z,6.63
2018-12-31T13:47:55.408Z,7.10
2018-12-31T13:50:32.282Z,6.30
2018-12-31T13:53:09.344Z,6.57
2018-12-31T13:55:43.092Z,6.17
2018-12-31T13:58:17.579Z,6.07
2018-12-31T14:01:05.628Z,7.07
2018-12-31T14:03:39.580Z,5.87
2018-12-31T14:06:11.187Z,5.73
2018-12-31T14:08:44.751Z,6.70
2018-12-31T14:11:18.092Z,5.70
2018-12-31T14:13:49.658Z,6.43
2018-12-31T14:16:20.949Z,8.10
2018-12-31T14:18:53.373Z,7.30
2018-12-31T14:21:25.347Z,7.00
2018-12-31T14:23:56.269Z,6.83
2018-12-31T14:26:27.956Z,7.60
2018-12-31T14:28:59.165Z,6.70
2018-12-31T14:31:30.000Z,7.23
2018-12-31T14:34:01.139Z,7.70
2018-12-31T14:36:34.240Z,7.90
2018-12-31T14:39:09.198Z,8.17
2018-12-31T14:41:40.124Z,9.03
2018-12-31T14:44:11.892Z,8.70
2018-12-31T14:46:45.514Z,9.57
2018-12-31T14:49:16.514Z,8.83
2018-12-31T14:51:50.632Z,7.70
2018-12-31T14:54:25.889Z,8.97
2018-12-31T14:56:57.568Z,7.57
2018-12-31T14:59:30.020Z,7.37
2018-12-31T15:02:01.779Z,8.40
2018-12-31T15:04:32.935Z,7.23
2018-12-31T15:07:04.033Z,7.30
2018-12-31T15:09:35.520Z,8.70
2018-12-31T15:12:08.391Z,8.47
2018-12-31T15:14:42.355Z,7.60
2018-12-31T15:17:18.134Z,8.17
2018-12-31T15:19:50.671Z,7.90
2018-12-31T15:22:28.893Z,14.57
2018-12-31T15:24:56.044Z,10.17
2018-12-31T15:27:27.583Z,9.30
2018-12-31T15:29:59.098Z,8.23
2018-12-31T15:32:33.439Z,9.20
2018-12-31T15:35:04.558Z,8.77
2018-12-31T15:37:36.348Z,8.80
2018-12-31T15:40:09.231Z,8.73
2018-12-31T15:42:40.537Z,9.27
2018-12-31T15:45:12.455Z,8.50
2018-12-31T15:47:45.398Z,9.83
2018-12-31T15:50:16.949Z,8.53
2018-12-31T15:52:47.936Z,9.90
2018-12-31T15:55:19.870Z,10.23
2018-12-31T15:57:52.113Z,7.97
2018-12-31T16:00:23.698Z,8.43
2018-12-31T16:02:57.143Z,14.47
2018-12-31T16:05:32.736Z,12.17
2018-12-31T16:08:03.779Z,11.50
2018-12-31T16:10:40.122Z,12.77
2018-12-31T16:13:11.382Z,12.23
2018-12-31T16:15:42.650Z,11.70
2018-12-31T16:18:14.591Z,11.13
2018-12-31T16:20:45.741Z,11.57
2018-12-31T16:23:19.583Z,16.27
2018-12-31T16:25:52.681Z,13.10
2018-12-31T16:28:32.913Z,14.70
2018-12-31T16:31:05.539Z,14.33
2018-12-31T16:33:38.158Z,13.30
2018-12-31T16:36:09.391Z,12.50
2018-12-31T16:38:43.316Z,16.43
2018-12-31T16:41:18.895Z,15.77
2018-12-31T16:43:50.697Z,15.37
2018-12-31T16:46:23.008Z,13.10
2018-12-31T16:48:56.782Z,14.10
2018-12-31T16:51:32.401Z,15.73
2018-12-31T16:54:06.327Z,15.07
2018-12-31T16:56:40.684Z,17.33
2018-12-31T16:59:12.315Z,14.93
2018-12-31T17:01:46.415Z,31.87
2018-12-31T17:04:18.012Z,47.97
2018-12-31T17:06:59.263Z,31.43
2018-12-31T17:09:35.458Z,17.03
2018-12-31T17:12:08.245Z,19.23
2018-12-31T17:14:42.440Z,16.40
2018-12-31T17:20:09.909Z,7.73
2018-12-31T17:22:43.073Z,6.90
2018-12-31T17:25:16.697Z,6.67
2018-12-31T17:27:50.160Z,6.60
2018-12-31T17:30:24.648Z,5.77
2018-12-31T17:32:58.652Z,5.57
2018-12-31T17:35:52.766Z,5.33
2018-12-31T17:38:18.370Z,13.37
2018-12-31T17:40:51.742Z,9.30
2018-12-31T17:43:23.469Z,8.80
2018-12-31T17:45:56.421Z,6.53
2018-12-31T17:48:48.985Z,11.40
2018-12-31T17:51:23.264Z,12.03
2018-12-31T17:53:56.422Z,7.27
2018-12-31T17:56:29.310Z,8.03
2018-12-31T17:59:01.981Z,11.70
2018-12-31T18:01:34.480Z,10.60
2018-12-31T18:04:12.355Z,10.97
2018-12-31T18:06:43.623Z,11.67
2018-12-31T18:09:21.516Z,10.33
2018-12-31T18:12:02.697Z,10.57
2018-12-31T18:14:33.867Z,10.70
2018-12-31T18:17:08.922Z,9.67
2018-12-31T18:19:50.289Z,8.50
2018-12-31T18:22:21.326Z,9.87
2018-12-31T18:24:56.160Z,10.70
2018-12-31T18:27:31.097Z,12.93
2018-12-31T18:30:07.973Z,15.43
2018-12-31T18:32:40.527Z,22.03
2018-12-31T18:35:11.645Z,29.90
2018-12-31T18:37:48.015Z,30.67
2018-12-31T18:40:19.997Z,31.47
2018-12-31T18:42:51.499Z,55.73
2018-12-31T18:45:23.039Z,46.30
2018-12-31T18:47:54.941Z,28.50
2018-12-31T18:50:26.355Z,24.60
2018-12-31T18:53:00.155Z,34.77
2018-12-31T18:55:34.611Z,32.53
2018-12-31T18:58:12.129Z,30.03
2018-12-31T19:00:43.899Z,23.07
2018-12-31T19:03:16.000Z,29.90
2018-12-31T19:05:53.219Z,64.00
2018-12-31T19:08:26.721Z,95.23
2018-12-31T19:10:58.193Z,35.90
2018-12-31T19:13:29.699Z,28.67
2018-12-31T19:16:01.415Z,21.17
2018-12-31T19:18:33.147Z,19.03
2018-12-31T19:21:06.101Z,21.13
2018-12-31T19:23:40.789Z,31.30
2018-12-31T19:26:12.980Z,150.50
2018-12-31T19:28:46.146Z,57.30
2018-12-31T19:31:17.604Z,62.00
2018-12-31T19:33:51.472Z,88.03
2018-12-31T19:36:23.753Z,103.40
2018-12-31T19:38:55.539Z,78.10
2018-12-31T19:41:28.519Z,59.30
2018-12-31T19:43:59.854Z,51.53
2018-12-31T19:46:32.632Z,40.67
2018-12-31T19:49:04.250Z,40.17
2018-12-31T19:51:35.919Z,39.57
2018-12-31T19:54:07.130Z,43.67
2018-12-31T19:56:40.586Z,53.30
2018-12-31T19:59:13.340Z,48.33
2018-12-31T20:01:51.239Z,28.83
2018-12-31T20:04:29.910Z,22.03
2018-12-31T20:07:03.549Z,24.17
2018-12-31T20:09:36.445Z,17.00
2018-12-31T20:12:12.597Z,13.63
2018-12-31T20:14:49.037Z,11.00
2018-12-31T20:17:22.997Z,12.50
2018-12-31T20:19:55.166Z,8.30
2018-12-31T20:22:26.464Z,8.57
2018-12-31T20:25:34.403Z,8.70
2018-12-31T20:28:06.277Z,10.13
2018-12-31T20:30:39.611Z,11.30
2018-12-31T20:33:11.927Z,16.23
2018-12-31T20:35:48.236Z,15.73
2018-12-31T20:38:21.116Z,16.53
2018-12-31T20:40:56.312Z,18.67
2018-12-31T20:43:27.690Z,22.17
2018-12-31T20:46:02.226Z,17.00
2018-12-31T20:48:36.639Z,15.63
2018-12-31T20:51:09.220Z,19.20
2018-12-31T20:53:44.781Z,17.83
2018-12-31T20:56:16.668Z,20.37
2018-12-31T20:58:49.696Z,20.90
2018-12-31T21:01:25.201Z,20.57
2018-12-31T21:04:09.493Z,20.00
2018-12-31T21:06:41.118Z,19.60
2018-12-31T21:09:18.179Z,19.80
2018-12-31T21:11:52.476Z,20.03
2018-12-31T21:14:24.235Z,20.97
2018-12-31T21:16:58.112Z,23.13
2018-12-31T21:19:29.976Z,20.90
2018-12-31T21:22:01.538Z,20.10
2018-12-31T21:24:33.247Z,17.27
2018-12-31T21:27:04.465Z,19.13
2018-12-31T21:29:36.088Z,18.70
2018-12-31T21:32:07.239Z,18.90
2018-12-31T21:34:46.204Z,17.97
2018-12-31T21:37:17.597Z,19.67
2018-12-31T21:39:48.858Z,18.57
2018-12-31T21:42:21.642Z,18.67
2018-12-31T21:44:53.100Z,19.73
2018-12-31T21:47:24.075Z,19.23
2018-12-31T21:49:56.681Z,18.47
2018-12-31T21:52:30.103Z,15.03
2018-12-31T21:55:01.528Z,29.23
2018-12-31T21:57:34.198Z,27.33
2018-12-31T22:00:06.207Z,28.33
2018-12-31T22:02:40.679Z,20.40
2018-12-31T22:05:12.204Z,32.40
2018-12-31T22:07:43.510Z,52.80
2018-12-31T22:10:17.559Z,29.03
2018-12-31T22:12:51.273Z,27.37
2018-12-31T22:15:24.938Z,44.67
2018-12-31T22:18:05.260Z,20.60
2018-12-31T22:20:41.838Z,17.57
2018-12-31T22:23:38.699Z,14.70
2018-12-31T22:26:12.931Z,15.40
2018-12-31T22:28:47.238Z,20.87
2018-12-31T22:31:21.747Z,15.43
2018-12-31T22:33:58.076Z,18.77
2018-12-31T22:36:31.720Z,19.10
2018-12-31T22:39:10.420Z,19.37
2018-12-31T22:41:43.586Z,11.53
2018-12-31T22:44:21.848Z,12.40
2018-12-31T22:46:55.002Z,16.43
2018-12-31T22:49:26.411Z,16.27
2018-12-31T22:51:58.817Z,12.87
2018-12-31T22:54:30.994Z,12.60
2018-12-31T22:57:08.304Z,17.23
2018-12-31T22:59:43.095Z,16.37
2018-12-31T23:02:19.641Z,12.27
2018-12-31T23:04:54.103Z,28.67
2018-12-31T23:07:25.767Z,101.80
2018-12-31T23:10:00.364Z,253.70
2018-12-31T23:12:37.800Z,356.63
2018-12-31T23:15:19.598Z,214.33
2018-12-31T23:17:50.769Z,291.50
2018-12-31T23:20:28.693Z,345.20
2018-12-31T23:23:08.596Z,672.73
2018-12-31T23:25:53.082Z,301.93
2018-12-31T23:28:24.981Z,322.03
2018-12-31T23:31:01.597Z,232.53
2018-12-31T23:33:41.324Z,93.87
2018-12-31T23:36:26.882Z,112.13
2018-12-31T23:39:05.139Z,125.10
2018-12-31T23:41:39.593Z,108.93
2018-12-31T23:44:15.316Z,45.47
2018-12-31T23:46:49.838Z,32.57
2018-12-31T23:49:24.623Z,30.67
2018-12-31T23:52:00.161Z,29.57
2018-12-31T23:54:34.106Z,28.63
2018-12-31T23:57:09.709Z,25.53
2018-12-31T23:59:46.420Z,23.63
